sensor_id;sensor_type;location;lat;lon;timestamp;P1;durP1;ratioP1;P2;durP2;ratioP2
43990;SDS011;29654;50.784;20.604;2023-07-20T00:01:56;6.07;;;4.10;;
43990;SDS011;29654;50.784;20.604;2023-07-20T00:07:03;6.63;;;5.00;;
43990;SDS011;29654;50.784;20.604;2023-07-20T00:12:11;6.45;;;4.70;;
43990;SDS011;29654;50.784;20.604;2023-07-20T00:17:13;7.70;;;5.18;;
43990;SDS011;29654;50.784;20.604;2023-07-20T00:22:16;6.75;;;5.18;;
43990;SDS011;29654;50.784;20.604;2023-07-20T00:27:20;6.05;;;4.95;;
43990;SDS011;29654;50.784;20.604;2023-07-20T00:32:23;6.47;;;4.75;;
43990;SDS011;29654;50.784;20.604;2023-07-20T00:37:26;6.20;;;4.88;;
43990;SDS011;29654;50.784;20.604;2023-07-20T00:42:30;6.88;;;5.32;;
43990;SDS011;29654;50.784;20.604;2023-07-20T00:47:33;7.03;;;5.40;;
43990;SDS011;29654;50.784;20.604;2023-07-20T00:52:36;5.30;;;4.78;;
43990;SDS011;29654;50.784;20.604;2023-07-20T00:57:42;5.15;;;4.65;;
43990;SDS011;29654;50.784;20.604;2023-07-20T01:02:44;6.97;;;4.90;;
43990;SDS011;29654;50.784;20.604;2023-07-20T01:07:52;5.53;;;4.65;;
43990;SDS011;29654;50.784;20.604;2023-07-20T01:13:04;7.65;;;5.28;;
43990;SDS011;29654;50.784;20.604;2023-07-20T01:18:09;6.32;;;4.57;;
43990;SDS011;29654;50.784;20.604;2023-07-20T01:23:23;6.90;;;5.07;;
43990;SDS011;29654;50.784;20.604;2023-07-20T01:28:51;5.63;;;5.00;;
43990;SDS011;29654;50.784;20.604;2023-07-20T01:34:19;7.00;;;5.07;;
43990;SDS011;29654;50.784;20.604;2023-07-20T01:39:25;7.80;;;5.65;;
43990;SDS011;29654;50.784;20.604;2023-07-20T01:44:29;6.88;;;5.22;;
43990;SDS011;29654;50.784;20.604;2023-07-20T01:49:33;5.85;;;5.22;;
43990;SDS011;29654;50.784;20.604;2023-07-20T01:54:36;9.77;;;5.82;;
43990;SDS011;29654;50.784;20.604;2023-07-20T01:59:38;9.10;;;5.85;;
43990;SDS011;29654;50.784;20.604;2023-07-20T02:04:43;6.10;;;5.10;;
43990;SDS011;29654;50.784;20.604;2023-07-20T02:09:48;6.90;;;5.47;;
43990;SDS011;29654;50.784;20.604;2023-07-20T02:14:51;6.43;;;5.65;;
43990;SDS011;29654;50.784;20.604;2023-07-20T02:19:56;6.82;;;5.65;;
43990;SDS011;29654;50.784;20.604;2023-07-20T02:24:59;6.63;;;5.10;;
43990;SDS011;29654;50.784;20.604;2023-07-20T02:30:02;7.95;;;5.72;;
43990;SDS011;29654;50.784;20.604;2023-07-20T02:35:07;8.02;;;5.38;;
43990;SDS011;29654;50.784;20.604;2023-07-20T02:40:10;6.30;;;5.50;;
43990;SDS011;29654;50.784;20.604;2023-07-20T02:45:13;5.55;;;5.03;;
43990;SDS011;29654;50.784;20.604;2023-07-20T02:50:17;7.65;;;4.93;;
43990;SDS011;29654;50.784;20.604;2023-07-20T02:55:20;5.70;;;4.90;;
43990;SDS011;29654;50.784;20.604;2023-07-20T03:00:22;7.25;;;4.82;;
43990;SDS011;29654;50.784;20.604;2023-07-20T03:05:26;5.85;;;4.30;;
43990;SDS011;29654;50.784;20.604;2023-07-20T03:10:29;5.70;;;4.97;;
43990;SDS011;29654;50.784;20.604;2023-07-20T03:15:32;6.80;;;5.07;;
43990;SDS011;29654;50.784;20.604;2023-07-20T03:20:37;4.72;;;4.00;;
43990;SDS011;29654;50.784;20.604;2023-07-20T03:25:40;4.47;;;3.90;;
43990;SDS011;29654;50.784;20.604;2023-07-20T03:30:43;4.90;;;4.40;;
43990;SDS011;29654;50.784;20.604;2023-07-20T03:35:47;5.72;;;4.47;;
43990;SDS011;29654;50.784;20.604;2023-07-20T03:40:50;6.82;;;4.68;;
43990;SDS011;29654;50.784;20.604;2023-07-20T03:45:53;7.75;;;4.30;;
43990;SDS011;29654;50.784;20.604;2023-07-20T03:50:58;4.78;;;4.18;;
43990;SDS011;29654;50.784;20.604;2023-07-20T03:56:01;6.53;;;4.80;;
43990;SDS011;29654;50.784;20.604;2023-07-20T04:01:04;5.63;;;4.30;;
43990;SDS011;29654;50.784;20.604;2023-07-20T04:06:08;5.75;;;4.30;;
43990;SDS011;29654;50.784;20.604;2023-07-20T04:11:11;5.13;;;4.57;;
43990;SDS011;29654;50.784;20.604;2023-07-20T04:16:14;5.47;;;4.32;;
43990;SDS011;29654;50.784;20.604;2023-07-20T04:21:18;6.20;;;4.40;;
43990;SDS011;29654;50.784;20.604;2023-07-20T04:26:20;4.88;;;4.15;;
43990;SDS011;29654;50.784;20.604;2023-07-20T04:31:23;6.28;;;3.95;;
43990;SDS011;29654;50.784;20.604;2023-07-20T04:36:28;4.63;;;3.55;;
43990;SDS011;29654;50.784;20.604;2023-07-20T04:41:31;5.03;;;4.03;;
43990;SDS011;29654;50.784;20.604;2023-07-20T04:46:33;4.93;;;3.70;;
43990;SDS011;29654;50.784;20.604;2023-07-20T04:51:39;4.18;;;3.45;;
43990;SDS011;29654;50.784;20.604;2023-07-20T04:56:42;5.32;;;3.78;;
43990;SDS011;29654;50.784;20.604;2023-07-20T05:01:46;4.57;;;4.15;;
43990;SDS011;29654;50.784;20.604;2023-07-20T05:06:51;4.00;;;3.38;;
43990;SDS011;29654;50.784;20.604;2023-07-20T05:11:54;4.60;;;3.78;;
43990;SDS011;29654;50.784;20.604;2023-07-20T05:16:57;5.60;;;4.00;;
43990;SDS011;29654;50.784;20.604;2023-07-20T05:22:01;5.25;;;3.42;;
43990;SDS011;29654;50.784;20.604;2023-07-20T05:27:04;3.83;;;3.20;;
43990;SDS011;29654;50.784;20.604;2023-07-20T05:32:07;3.53;;;3.22;;
43990;SDS011;29654;50.784;20.604;2023-07-20T05:37:12;4.13;;;3.17;;
43990;SDS011;29654;50.784;20.604;2023-07-20T05:42:15;5.95;;;3.22;;
43990;SDS011;29654;50.784;20.604;2023-07-20T05:47:18;6.43;;;3.10;;
43990;SDS011;29654;50.784;20.604;2023-07-20T05:52:22;3.70;;;2.78;;
43990;SDS011;29654;50.784;20.604;2023-07-20T05:57:25;3.50;;;2.60;;
43990;SDS011;29654;50.784;20.604;2023-07-20T06:02:28;2.80;;;2.55;;
43990;SDS011;29654;50.784;20.604;2023-07-20T06:07:32;4.85;;;2.50;;
43990;SDS011;29654;50.784;20.604;2023-07-20T06:12:34;3.13;;;2.13;;
43990;SDS011;29654;50.784;20.604;2023-07-20T06:17:37;3.38;;;2.33;;
43990;SDS011;29654;50.784;20.604;2023-07-20T06:22:41;3.63;;;2.35;;
43990;SDS011;29654;50.784;20.604;2023-07-20T06:27:44;3.38;;;2.50;;
43990;SDS011;29654;50.784;20.604;2023-07-20T06:32:47;2.30;;;2.10;;
43990;SDS011;29654;50.784;20.604;2023-07-20T06:37:51;2.72;;;2.35;;
43990;SDS011;29654;50.784;20.604;2023-07-20T06:42:54;2.90;;;2.53;;
43990;SDS011;29654;50.784;20.604;2023-07-20T06:47:58;3.05;;;2.83;;
43990;SDS011;29654;50.784;20.604;2023-07-20T06:53:04;3.20;;;2.90;;
43990;SDS011;29654;50.784;20.604;2023-07-20T06:58:08;3.50;;;3.20;;
43990;SDS011;29654;50.784;20.604;2023-07-20T07:03:11;2.97;;;2.65;;
43990;SDS011;29654;50.784;20.604;2023-07-20T07:08:17;7.68;;;3.20;;
43990;SDS011;29654;50.784;20.604;2023-07-20T07:13:20;3.35;;;2.47;;
43990;SDS011;29654;50.784;20.604;2023-07-20T07:18:23;3.08;;;2.33;;
43990;SDS011;29654;50.784;20.604;2023-07-20T07:23:28;2.55;;;2.35;;
43990;SDS011;29654;50.784;20.604;2023-07-20T07:28:31;3.03;;;2.33;;
43990;SDS011;29654;50.784;20.604;2023-07-20T07:33:33;3.45;;;2.65;;
43990;SDS011;29654;50.784;20.604;2023-07-20T07:38:37;5.18;;;3.08;;
43990;SDS011;29654;50.784;20.604;2023-07-20T07:43:40;3.25;;;2.80;;
43990;SDS011;29654;50.784;20.604;2023-07-20T07:48:42;5.07;;;4.07;;
43990;SDS011;29654;50.784;20.604;2023-07-20T07:53:47;2.80;;;2.50;;
43990;SDS011;29654;50.784;20.604;2023-07-20T07:58:50;2.00;;;1.90;;
43990;SDS011;29654;50.784;20.604;2023-07-20T08:03:53;4.63;;;1.88;;
43990;SDS011;29654;50.784;20.604;2023-07-20T08:08:57;1.77;;;1.38;;
43990;SDS011;29654;50.784;20.604;2023-07-20T08:14:00;1.23;;;1.13;;
43990;SDS011;29654;50.784;20.604;2023-07-20T08:19:03;3.47;;;1.58;;
43990;SDS011;29654;50.784;20.604;2023-07-20T08:24:07;1.55;;;1.45;;
43990;SDS011;29654;50.784;20.604;2023-07-20T08:29:09;1.60;;;1.50;;
43990;SDS011;29654;50.784;20.604;2023-07-20T08:34:12;2.03;;;1.58;;
43990;SDS011;29654;50.784;20.604;2023-07-20T08:39:16;1.38;;;1.27;;
43990;SDS011;29654;50.784;20.604;2023-07-20T08:44:18;1.67;;;1.58;;
43990;SDS011;29654;50.784;20.604;2023-07-20T08:49:22;2.00;;;1.80;;
43990;SDS011;29654;50.784;20.604;2023-07-20T08:54:29;1.85;;;1.40;;
43990;SDS011;29654;50.784;20.604;2023-07-20T08:59:34;1.98;;;1.58;;
43990;SDS011;29654;50.784;20.604;2023-07-20T09:04:39;2.25;;;1.77;;
43990;SDS011;29654;50.784;20.604;2023-07-20T09:09:44;2.35;;;2.13;;
43990;SDS011;29654;50.784;20.604;2023-07-20T09:14:47;1.67;;;1.58;;
43990;SDS011;29654;50.784;20.604;2023-07-20T09:19:50;1.70;;;1.60;;
43990;SDS011;29654;50.784;20.604;2023-07-20T09:24:53;1.70;;;1.60;;
43990;SDS011;29654;50.784;20.604;2023-07-20T09:29:56;2.15;;;1.30;;
43990;SDS011;29654;50.784;20.604;2023-07-20T09:34:59;1.30;;;1.13;;
43990;SDS011;29654;50.784;20.604;2023-07-20T09:40:03;2.88;;;2.00;;
43990;SDS011;29654;50.784;20.604;2023-07-20T09:45:10;1.63;;;1.27;;
43990;SDS011;29654;50.784;20.604;2023-07-20T09:50:13;3.13;;;1.65;;
43990;SDS011;29654;50.784;20.604;2023-07-20T09:55:17;4.47;;;1.58;;
43990;SDS011;29654;50.784;20.604;2023-07-20T10:00:22;1.60;;;1.25;;
43990;SDS011;29654;50.784;20.604;2023-07-20T10:05:25;2.10;;;1.63;;
43990;SDS011;29654;50.784;20.604;2023-07-20T10:10:36;1.95;;;1.50;;
43990;SDS011;29654;50.784;20.604;2023-07-20T10:15:46;1.77;;;1.60;;
43990;SDS011;29654;50.784;20.604;2023-07-20T10:20:51;1.90;;;1.80;;
43990;SDS011;29654;50.784;20.604;2023-07-20T10:25:59;2.30;;;1.48;;
43990;SDS011;29654;50.784;20.604;2023-07-20T10:31:03;2.78;;;2.22;;
43990;SDS011;29654;50.784;20.604;2023-07-20T10:36:07;3.42;;;1.98;;
43990;SDS011;29654;50.784;20.604;2023-07-20T10:41:17;3.63;;;2.47;;
43990;SDS011;29654;50.784;20.604;2023-07-20T10:46:34;3.53;;;2.10;;
43990;SDS011;29654;50.784;20.604;2023-07-20T10:51:47;2.42;;;1.98;;
43990;SDS011;29654;50.784;20.604;2023-07-20T10:56:52;1.92;;;1.75;;
43990;SDS011;29654;50.784;20.604;2023-07-20T11:01:57;2.03;;;1.85;;
43990;SDS011;29654;50.784;20.604;2023-07-20T11:07:01;2.30;;;2.10;;
43990;SDS011;29654;50.784;20.604;2023-07-20T11:12:10;1.90;;;1.80;;
43990;SDS011;29654;50.784;20.604;2023-07-20T11:17:15;4.70;;;2.38;;
43990;SDS011;29654;50.784;20.604;2023-07-20T11:22:22;2.72;;;2.50;;
43990;SDS011;29654;50.784;20.604;2023-07-20T11:27:27;2.35;;;2.15;;
43990;SDS011;29654;50.784;20.604;2023-07-20T11:32:29;2.97;;;2.30;;
43990;SDS011;29654;50.784;20.604;2023-07-20T11:37:32;3.33;;;2.17;;
43990;SDS011;29654;50.784;20.604;2023-07-20T11:42:37;2.17;;;2.08;;
43990;SDS011;29654;50.784;20.604;2023-07-20T11:47:40;4.07;;;2.90;;
43990;SDS011;29654;50.784;20.604;2023-07-20T11:52:44;3.67;;;3.30;;
43990;SDS011;29654;50.784;20.604;2023-07-20T11:58:01;3.33;;;3.03;;
43990;SDS011;29654;50.784;20.604;2023-07-20T12:03:06;2.97;;;2.78;;
43990;SDS011;29654;50.784;20.604;2023-07-20T12:08:10;4.00;;;3.60;;
43990;SDS011;29654;50.784;20.604;2023-07-20T12:13:14;5.90;;;4.35;;
43990;SDS011;29654;50.784;20.604;2023-07-20T12:18:17;4.35;;;3.95;;
43990;SDS011;29654;50.784;20.604;2023-07-20T12:23:20;3.67;;;3.42;;
43990;SDS011;29654;50.784;20.604;2023-07-20T12:28:24;4.90;;;4.50;;
43990;SDS011;29654;50.784;20.604;2023-07-20T12:33:27;4.55;;;4.15;;
43990;SDS011;29654;50.784;20.604;2023-07-20T12:38:29;4.47;;;4.10;;
43990;SDS011;29654;50.784;20.604;2023-07-20T12:43:34;4.13;;;3.83;;
43990;SDS011;29654;50.784;20.604;2023-07-20T12:48:37;3.78;;;3.53;;
43990;SDS011;29654;50.784;20.604;2023-07-20T12:53:42;2.83;;;2.70;;
43990;SDS011;29654;50.784;20.604;2023-07-20T12:58:47;2.67;;;2.33;;
43990;SDS011;29654;50.784;20.604;2023-07-20T13:03:50;3.83;;;2.08;;
43990;SDS011;29654;50.784;20.604;2023-07-20T13:08:54;2.15;;;2.00;;
43990;SDS011;29654;50.784;20.604;2023-07-20T13:14:00;2.63;;;2.42;;
43990;SDS011;29654;50.784;20.604;2023-07-20T13:19:02;3.20;;;2.50;;
43990;SDS011;29654;50.784;20.604;2023-07-20T13:24:05;2.78;;;2.50;;
43990;SDS011;29654;50.784;20.604;2023-07-20T13:29:09;2.60;;;2.40;;
43990;SDS011;29654;50.784;20.604;2023-07-20T13:34:13;1.92;;;1.77;;
43990;SDS011;29654;50.784;20.604;2023-07-20T13:39:17;2.50;;;2.30;;
43990;SDS011;29654;50.784;20.604;2023-07-20T13:44:21;2.45;;;2.25;;
43990;SDS011;29654;50.784;20.604;2023-07-20T13:49:25;1.77;;;1.67;;
43990;SDS011;29654;50.784;20.604;2023-07-20T13:54:29;2.03;;;1.90;;
43990;SDS011;29654;50.784;20.604;2023-07-20T13:59:33;2.50;;;2.20;;
43990;SDS011;29654;50.784;20.604;2023-07-20T14:04:35;1.52;;;1.42;;
43990;SDS011;29654;50.784;20.604;2023-07-20T14:09:38;1.85;;;1.30;;
43990;SDS011;29654;50.784;20.604;2023-07-20T14:14:43;2.75;;;1.70;;
43990;SDS011;29654;50.784;20.604;2023-07-20T14:19:46;3.33;;;1.73;;
43990;SDS011;29654;50.784;20.604;2023-07-20T14:24:49;2.10;;;1.50;;
43990;SDS011;29654;50.784;20.604;2023-07-20T14:29:53;2.67;;;2.10;;
43990;SDS011;29654;50.784;20.604;2023-07-20T14:34:56;2.72;;;2.20;;
43990;SDS011;29654;50.784;20.604;2023-07-20T14:39:58;4.25;;;1.83;;
43990;SDS011;29654;50.784;20.604;2023-07-20T14:45:04;1.23;;;1.13;;
43990;SDS011;29654;50.784;20.604;2023-07-20T14:50:08;1.15;;;0.82;;
43990;SDS011;29654;50.784;20.604;2023-07-20T14:55:11;1.35;;;0.65;;
43990;SDS011;29654;50.784;20.604;2023-07-20T15:00:16;1.77;;;1.10;;
43990;SDS011;29654;50.784;20.604;2023-07-20T15:05:20;1.67;;;1.10;;
43990;SDS011;29654;50.784;20.604;2023-07-20T15:10:24;2.90;;;1.45;;
43990;SDS011;29654;50.784;20.604;2023-07-20T15:15:28;1.52;;;1.38;;
43990;SDS011;29654;50.784;20.604;2023-07-20T15:20:31;3.08;;;2.28;;
43990;SDS011;29654;50.784;20.604;2023-07-20T15:25:33;2.85;;;2.55;;
43990;SDS011;29654;50.784;20.604;2023-07-20T15:30:37;2.88;;;2.35;;
43990;SDS011;29654;50.784;20.604;2023-07-20T15:35:40;2.38;;;2.22;;
43990;SDS011;29654;50.784;20.604;2023-07-20T15:40:42;2.20;;;1.58;;
43990;SDS011;29654;50.784;20.604;2023-07-20T15:45:47;3.50;;;1.60;;
43990;SDS011;29654;50.784;20.604;2023-07-20T15:50:51;0.90;;;0.90;;
43990;SDS011;29654;50.784;20.604;2023-07-20T15:55:53;6.05;;;2.85;;
43990;SDS011;29654;50.784;20.604;2023-07-20T16:00:58;1.92;;;1.35;;
43990;SDS011;29654;50.784;20.604;2023-07-20T16:06:01;31.85;;;9.45;;
43990;SDS011;29654;50.784;20.604;2023-07-20T16:11:06;57.13;;;23.38;;
43990;SDS011;29654;50.784;20.604;2023-07-20T16:16:10;2.38;;;1.33;;
43990;SDS011;29654;50.784;20.604;2023-07-20T16:21:13;1.67;;;0.90;;
43990;SDS011;29654;50.784;20.604;2023-07-20T16:26:15;1.98;;;1.00;;
43990;SDS011;29654;50.784;20.604;2023-07-20T16:31:20;1.67;;;0.95;;
43990;SDS011;29654;50.784;20.604;2023-07-20T16:36:22;1.52;;;1.15;;
43990;SDS011;29654;50.784;20.604;2023-07-20T16:41:25;2.25;;;1.08;;
43990;SDS011;29654;50.784;20.604;2023-07-20T16:46:29;1.05;;;0.90;;
43990;SDS011;29654;50.784;20.604;2023-07-20T16:51:32;1.80;;;1.35;;
43990;SDS011;29654;50.784;20.604;2023-07-20T16:56:35;2.63;;;1.30;;
43990;SDS011;29654;50.784;20.604;2023-07-20T17:01:39;5.22;;;1.33;;
43990;SDS011;29654;50.784;20.604;2023-07-20T17:06:41;4.15;;;1.40;;
43990;SDS011;29654;50.784;20.604;2023-07-20T17:11:46;2.60;;;1.13;;
43990;SDS011;29654;50.784;20.604;2023-07-20T17:16:50;1.60;;;1.30;;
43990;SDS011;29654;50.784;20.604;2023-07-20T17:21:53;1.98;;;1.00;;
43990;SDS011;29654;50.784;20.604;2023-07-20T17:26:56;1.48;;;1.05;;
43990;SDS011;29654;50.784;20.604;2023-07-20T17:32:00;3.25;;;1.10;;
43990;SDS011;29654;50.784;20.604;2023-07-20T17:37:03;6.05;;;1.23;;
43990;SDS011;29654;50.784;20.604;2023-07-20T17:42:06;2.42;;;1.00;;
43990;SDS011;29654;50.784;20.604;2023-07-20T17:47:10;1.38;;;0.85;;
43990;SDS011;29654;50.784;20.604;2023-07-20T17:52:13;2.25;;;1.40;;
43990;SDS011;29654;50.784;20.604;2023-07-20T17:57:16;3.38;;;1.40;;
43990;SDS011;29654;50.784;20.604;2023-07-20T18:02:21;2.05;;;1.08;;
43990;SDS011;29654;50.784;20.604;2023-07-20T18:07:25;3.78;;;1.10;;
43990;SDS011;29654;50.784;20.604;2023-07-20T18:12:28;2.78;;;1.15;;
43990;SDS011;29654;50.784;20.604;2023-07-20T18:17:34;3.83;;;1.13;;
43990;SDS011;29654;50.784;20.604;2023-07-20T18:22:37;1.73;;;0.90;;
43990;SDS011;29654;50.784;20.604;2023-07-20T18:27:40;1.70;;;1.02;;
43990;SDS011;29654;50.784;20.604;2023-07-20T18:32:44;1.52;;;1.00;;
43990;SDS011;29654;50.784;20.604;2023-07-20T18:37:47;2.25;;;1.30;;
43990;SDS011;29654;50.784;20.604;2023-07-20T18:42:50;1.23;;;1.05;;
43990;SDS011;29654;50.784;20.604;2023-07-20T18:47:54;1.13;;;1.02;;
43990;SDS011;29654;50.784;20.604;2023-07-20T18:52:58;1.38;;;1.20;;
43990;SDS011;29654;50.784;20.604;2023-07-20T18:58:01;2.15;;;1.30;;
43990;SDS011;29654;50.784;20.604;2023-07-20T19:03:05;1.20;;;1.10;;
43990;SDS011;29654;50.784;20.604;2023-07-20T19:08:08;1.05;;;0.90;;
43990;SDS011;29654;50.784;20.604;2023-07-20T19:13:12;1.20;;;1.10;;
43990;SDS011;29654;50.784;20.604;2023-07-20T19:18:16;1.48;;;0.98;;
43990;SDS011;29654;50.784;20.604;2023-07-20T19:23:19;1.45;;;1.10;;
43990;SDS011;29654;50.784;20.604;2023-07-20T19:28:22;1.38;;;0.80;;
43990;SDS011;29654;50.784;20.604;2023-07-20T19:33:26;1.30;;;1.00;;
43990;SDS011;29654;50.784;20.604;2023-07-20T19:38:29;1.20;;;1.05;;
43990;SDS011;29654;50.784;20.604;2023-07-20T19:43:31;1.17;;;0.77;;
43990;SDS011;29654;50.784;20.604;2023-07-20T19:48:35;1.17;;;1.08;;
43990;SDS011;29654;50.784;20.604;2023-07-20T19:53:38;1.92;;;1.10;;
43990;SDS011;29654;50.784;20.604;2023-07-20T19:58:41;1.30;;;1.15;;
43990;SDS011;29654;50.784;20.604;2023-07-20T20:03:44;1.83;;;1.10;;
43990;SDS011;29654;50.784;20.604;2023-07-20T20:08:47;1.25;;;0.95;;
43990;SDS011;29654;50.784;20.604;2023-07-20T20:13:50;1.05;;;0.95;;
43990;SDS011;29654;50.784;20.604;2023-07-20T20:18:55;2.22;;;1.30;;
43990;SDS011;29654;50.784;20.604;2023-07-20T20:23:58;2.47;;;1.10;;
43990;SDS011;29654;50.784;20.604;2023-07-20T20:29:01;2.67;;;1.40;;
43990;SDS011;29654;50.784;20.604;2023-07-20T20:34:06;3.13;;;1.50;;
43990;SDS011;29654;50.784;20.604;2023-07-20T20:39:09;2.55;;;1.40;;
43990;SDS011;29654;50.784;20.604;2023-07-20T20:44:12;2.17;;;1.48;;
43990;SDS011;29654;50.784;20.604;2023-07-20T20:49:19;1.85;;;1.20;;
43990;SDS011;29654;50.784;20.604;2023-07-20T20:54:22;3.22;;;1.13;;
43990;SDS011;29654;50.784;20.604;2023-07-20T20:59:25;1.95;;;1.23;;
43990;SDS011;29654;50.784;20.604;2023-07-20T21:04:30;1.40;;;1.30;;
43990;SDS011;29654;50.784;20.604;2023-07-20T21:09:33;3.92;;;2.70;;
43990;SDS011;29654;50.784;20.604;2023-07-20T21:14:35;2.45;;;2.25;;
43990;SDS011;29654;50.784;20.604;2023-07-20T21:19:39;2.10;;;1.83;;
43990;SDS011;29654;50.784;20.604;2023-07-20T21:24:42;1.70;;;1.35;;
43990;SDS011;29654;50.784;20.604;2023-07-20T21:29:45;3.05;;;1.50;;
43990;SDS011;29654;50.784;20.604;2023-07-20T21:34:49;2.25;;;1.83;;
43990;SDS011;29654;50.784;20.604;2023-07-20T21:39:52;2.75;;;1.40;;
43990;SDS011;29654;50.784;20.604;2023-07-20T21:44:55;1.83;;;1.48;;
43990;SDS011;29654;50.784;20.604;2023-07-20T21:49:59;1.50;;;1.40;;
43990;SDS011;29654;50.784;20.604;2023-07-20T21:55:02;1.75;;;1.42;;
43990;SDS011;29654;50.784;20.604;2023-07-20T22:00:05;1.73;;;1.63;;
43990;SDS011;29654;50.784;20.604;2023-07-20T22:05:15;2.58;;;1.80;;
43990;SDS011;29654;50.784;20.604;2023-07-20T22:10:21;2.95;;;1.88;;
43990;SDS011;29654;50.784;20.604;2023-07-20T22:15:25;2.20;;;1.63;;
43990;SDS011;29654;50.784;20.604;2023-07-20T22:20:30;3.83;;;1.80;;
43990;SDS011;29654;50.784;20.604;2023-07-20T22:25:34;2.97;;;2.30;;
43990;SDS011;29654;50.784;20.604;2023-07-20T22:30:37;4.20;;;2.25;;
43990;SDS011;29654;50.784;20.604;2023-07-20T22:35:42;2.70;;;2.22;;
43990;SDS011;29654;50.784;20.604;2023-07-20T22:40:45;2.10;;;1.90;;
43990;SDS011;29654;50.784;20.604;2023-07-20T22:45:48;2.33;;;1.83;;
43990;SDS011;29654;50.784;20.604;2023-07-20T22:50:53;3.75;;;2.47;;
43990;SDS011;29654;50.784;20.604;2023-07-20T22:55:58;2.78;;;2.17;;
43990;SDS011;29654;50.784;20.604;2023-07-20T23:01:01;4.35;;;2.72;;
43990;SDS011;29654;50.784;20.604;2023-07-20T23:06:12;2.65;;;2.40;;
43990;SDS011;29654;50.784;20.604;2023-07-20T23:11:16;4.22;;;2.50;;
43990;SDS011;29654;50.784;20.604;2023-07-20T23:16:19;3.05;;;2.78;;
43990;SDS011;29654;50.784;20.604;2023-07-20T23:21:23;3.30;;;2.53;;
43990;SDS011;29654;50.784;20.604;2023-07-20T23:26:26;2.65;;;2.20;;
43990;SDS011;29654;50.784;20.604;2023-07-20T23:31:28;3.05;;;2.42;;
43990;SDS011;29654;50.784;20.604;2023-07-20T23:36:32;2.35;;;2.10;;
43990;SDS011;29654;50.784;20.604;2023-07-20T23:41:35;2.80;;;2.60;;
43990;SDS011;29654;50.784;20.604;2023-07-20T23:46:37;2.88;;;2.67;;
43990;SDS011;29654;50.784;20.604;2023-07-20T23:51:41;6.30;;;3.20;;
43990;SDS011;29654;50.784;20.604;2023-07-20T23:56:44;4.28;;;3.13;;
